Time;durP1;ratioP1;P1;durP2;ratioP2;P2;SDS_P1;SDS_P2;PMS_P1;PMS_P2;Temp;Humidity;BMP_temperature;BMP_pressure;BME280_temperature;BME280_humidity;BME280_pressure;Samples;Min_cycle;Max_cycle;Signal;HPM_P1;HPM_P2
2022/01/20 00:00:02;;;;;;;;;;;21.70;47.50;;;;;;5083366;28;19913;-71
2022/01/20 00:02:30;;;;;;;;;;;21.70;47.50;;;;;;5083604;28;19923;-71
2022/01/20 00:06:31;;;;;;;;;;;21.60;47.50;;;;;;5086220;28;19920;-71
2022/01/20 00:27:06;;;;;;;;;;;21.50;47.50;;;;;;5085935;28;19985;-72
2022/01/20 00:29:45;;;;;;;;;;;21.50;47.50;;;;;;5086476;28;19916;-71
2022/01/20 00:32:12;;;;;;;;;;;21.50;47.50;;;;;;5084838;28;19925;-71
2022/01/20 00:35:11;;;;;;;;;;;21.50;47.60;;;;;;5085006;28;20015;-73
2022/01/20 00:37:37;;;;;;;;;;;21.50;47.60;;;;;;5084485;28;19920;-71
2022/01/20 00:40:02;;;;;;;;;;;21.50;47.60;;;;;;5084070;28;19923;-71
2022/01/20 00:42:28;;;;;;;;;;;21.50;47.60;;;;;;5084644;28;20145;-71
2022/01/20 00:44:53;;;;;;;;;;;21.40;47.60;;;;;;5083054;28;20347;-72
2022/01/20 00:47:19;;;;;;;;;;;21.40;47.60;;;;;;5086782;28;20010;-71
2022/01/20 00:49:45;;;;;;;;;;;21.40;47.60;;;;;;5086963;28;19976;-73
2022/01/20 00:52:15;;;;;;;;;;;21.40;47.60;;;;;;5087842;28;20004;-73
2022/01/20 00:54:41;;;;;;;;;;;21.30;47.60;;;;;;5080617;28;20517;-71
2022/01/20 00:57:06;;;;;;;;;;;21.40;48.20;;;;;;5083985;28;19912;-73
2022/01/20 00:59:32;;;;;;;;;;;21.30;47.60;;;;;;5085239;28;19934;-71
2022/01/20 01:01:59;;;;;;;;;;;21.30;47.70;;;;;;5086247;28;19966;-71
2022/01/20 01:04:26;;;;;;;;;;;21.30;47.60;;;;;;5086296;28;20283;-70
2022/01/20 01:09:20;;;;;;;;;;;21.30;47.70;;;;;;5086348;28;19995;-70
2022/01/20 01:11:47;;;;;;;;;;;21.30;47.70;;;;;;5081398;28;20007;-70
2022/01/20 01:14:15;;;;;;;;;;;21.20;47.70;;;;;;5084550;28;19912;-73
2022/01/20 01:24:36;;;;;;;;;;;21.20;47.70;;;;;;5082834;28;19916;-71
2022/01/20 01:27:02;;;;;;;;;;;21.20;47.70;;;;;;5083004;28;20251;-71
2022/01/20 01:32:15;;;;;;;;;;;21.20;47.70;;;;;;5085153;28;20437;-71
2022/01/20 01:34:47;;;;;;;;;;;21.20;47.70;;;;;;5084470;28;19943;-71
2022/01/20 01:39:57;;;;;;;;;;;21.10;47.70;;;;;;5081706;28;20247;-73
2022/01/20 01:42:29;;;;;;;;;;;21.10;47.70;;;;;;5082545;28;19916;-71
2022/01/20 01:44:57;;;;;;;;;;;21.10;48.20;;;;;;5081029;28;19916;-72
2022/01/20 01:47:22;;;;;;;;;;;21.10;47.70;;;;;;5086641;28;19916;-73
2022/01/20 01:49:48;;;;;;;;;;;21.10;47.70;;;;;;5086854;28;19930;-73
2022/01/20 01:52:13;;;;;;;;;;;21.10;47.80;;;;;;5087089;28;19912;-71
2022/01/20 01:54:39;;;;;;;;;;;21.10;47.80;;;;;;5084617;28;19920;-73
2022/01/20 01:57:09;;;;;;;;;;;21.10;47.80;;;;;;5084522;28;20006;-73
2022/01/20 01:59:34;;;;;;;;;;;21.10;47.80;;;;;;5100423;28;19936;-72
2022/01/20 02:02:00;;;;;;;;;;;21.00;47.70;;;;;;5082404;28;20641;-73
2022/01/20 02:04:25;;;;;;;;;;;21.00;47.80;;;;;;5086235;28;19947;-73
2022/01/20 02:07:16;;;;;;;;;;;21.00;47.70;;;;;;5087159;28;19923;-72
2022/01/20 02:20:26;;;;;;;;;;;21.00;47.80;;;;;;5081776;28;20291;-73
2022/01/20 02:22:52;;;;;;;;;;;21.00;47.80;;;;;;5088694;28;19923;-73
2022/01/20 02:25:22;;;;;;;;;;;20.90;47.80;;;;;;5085474;28;19923;-72
2022/01/20 02:27:47;;;;;;;;;;;21.00;47.90;;;;;;5081909;28;19959;-73
2022/01/20 02:30:14;;;;;;;;;;;20.90;47.80;;;;;;5085490;28;20324;-71
2022/01/20 02:32:40;;;;;;;;;;;20.90;47.80;;;;;;5083991;28;19917;-72
2022/01/20 02:35:08;;;;;;;;;;;20.90;47.80;;;;;;5086152;28;20295;-72
2022/01/20 02:37:33;;;;;;;;;;;20.90;47.90;;;;;;5084022;28;19912;-72
2022/01/20 02:45:29;;;;;;;;;;;20.90;47.90;;;;;;5089615;28;19923;-72
2022/01/20 02:47:54;;;;;;;;;;;20.90;47.90;;;;;;5086518;28;19938;-72
2022/01/20 02:50:20;;;;;;;;;;;20.90;47.90;;;;;;5090104;28;20287;-73
2022/01/20 02:52:45;;;;;;;;;;;20.90;47.90;;;;;;5088224;28;19920;-73
2022/01/20 02:55:11;;;;;;;;;;;20.80;47.80;;;;;;5086924;28;20824;-71
2022/01/20 02:57:36;;;;;;;;;;;20.80;47.80;;;;;;5085574;28;20387;-73
2022/01/20 03:00:03;;;;;;;;;;;20.80;47.90;;;;;;5088686;28;20018;-73
2022/01/20 03:02:29;;;;;;;;;;;20.80;47.90;;;;;;5082889;28;20041;-71
2022/01/20 03:04:54;;;;;;;;;;;20.80;47.90;;;;;;5089099;28;19997;-72
2022/01/20 03:07:20;;;;;;;;;;;20.80;47.90;;;;;;5082263;28;20057;-71
2022/01/20 03:09:45;;;;;;;;;;;20.80;47.90;;;;;;5087005;28;20348;-72
2022/01/20 03:12:11;;;;;;;;;;;20.80;47.90;;;;;;5085414;28;19923;-72
2022/01/20 03:14:37;;;;;;;;;;;20.80;48.00;;;;;;5085930;28;20351;-71
2022/01/20 03:17:02;;;;;;;;;;;20.70;47.90;;;;;;5086583;28;19932;-72
2022/01/20 03:19:28;;;;;;;;;;;20.80;48.00;;;;;;5089102;28;20372;-72
2022/01/20 03:21:53;;;;;;;;;;;20.70;47.90;;;;;;5089318;28;19947;-71
2022/01/20 03:24:22;;;;;;;;;;;20.70;48.00;;;;;;5085245;28;19970;-73
2022/01/20 03:26:48;;;;;;;;;;;20.70;48.00;;;;;;5086512;28;19962;-73
2022/01/20 03:29:13;;;;;;;;;;;20.70;48.00;;;;;;5087265;28;19920;-71
2022/01/20 03:31:39;;;;;;;;;;;20.70;48.10;;;;;;5086561;28;20733;-71
2022/01/20 03:34:04;;;;;;;;;;;20.70;48.10;;;;;;5085834;28;19935;-73
2022/01/20 03:36:30;;;;;;;;;;;20.70;48.10;;;;;;5087054;28;20349;-73
2022/01/20 03:38:55;;;;;;;;;;;20.70;48.10;;;;;;5087280;28;20000;-71
2022/01/20 03:41:21;;;;;;;;;;;20.70;48.10;;;;;;5084566;28;20383;-73
2022/01/20 03:43:47;;;;;;;;;;;20.70;48.10;;;;;;5083133;28;19912;-71
2022/01/20 03:46:13;;;;;;;;;;;20.70;48.10;;;;;;5088188;28;19915;-70
2022/01/20 03:48:51;;;;;;;;;;;20.70;48.10;;;;;;5083469;28;20000;-72
2022/01/20 03:51:20;;;;;;;;;;;20.60;48.00;;;;;;5084909;28;19962;-70
2022/01/20 03:53:47;;;;;;;;;;;20.60;48.00;;;;;;5085779;28;19916;-72
2022/01/20 03:56:12;;;;;;;;;;;20.60;48.00;;;;;;5088137;28;20006;-73
2022/01/20 03:58:38;;;;;;;;;;;20.60;48.00;;;;;;5083270;28;19931;-70
2022/01/20 04:01:03;;;;;;;;;;;20.60;48.10;;;;;;5086160;28;19923;-73
2022/01/20 04:03:29;;;;;;;;;;;20.60;48.10;;;;;;5087816;28;19916;-71
2022/01/20 04:05:57;;;;;;;;;;;20.60;48.10;;;;;;5084095;28;20302;-71
2022/01/20 04:08:24;;;;;;;;;;;20.60;48.10;;;;;;5085493;28;20465;-72
2022/01/20 04:10:49;;;;;;;;;;;20.60;48.10;;;;;;5082489;28;19963;-72
2022/01/20 04:13:16;;;;;;;;;;;20.60;48.10;;;;;;5086328;28;20898;-73
2022/01/20 04:15:42;;;;;;;;;;;20.50;48.10;;;;;;5082547;28;19965;-73
2022/01/20 04:18:08;;;;;;;;;;;20.60;48.20;;;;;;5086507;28;20365;-71
2022/01/20 04:20:34;;;;;;;;;;;20.50;48.10;;;;;;5087261;28;19916;-72
2022/01/20 04:23:00;;;;;;;;;;;20.50;48.10;;;;;;5087145;28;20276;-71
2022/01/20 04:25:25;;;;;;;;;;;20.50;48.20;;;;;;5086129;28;20045;-70
2022/01/20 04:27:51;;;;;;;;;;;20.50;48.20;;;;;;5085241;28;20020;-70
2022/01/20 04:30:16;;;;;;;;;;;20.50;48.20;;;;;;5082274;28;19963;-71
2022/01/20 04:32:42;;;;;;;;;;;20.50;48.20;;;;;;5088162;28;20482;-71
2022/01/20 04:35:08;;;;;;;;;;;20.50;48.20;;;;;;5081409;28;19916;-72
2022/01/20 04:37:33;;;;;;;;;;;20.50;48.20;;;;;;5086469;28;20326;-73
2022/01/20 04:40:01;;;;;;;;;;;20.50;48.20;;;;;;5084964;28;19927;-71
2022/01/20 04:42:29;;;;;;;;;;;20.50;48.30;;;;;;5082059;28;20006;-73
2022/01/20 04:45:02;;;;;;;;;;;20.50;48.20;;;;;;5086540;28;19927;-72
2022/01/20 04:47:44;;;;;;;;;;;20.50;48.30;;;;;;5083539;28;19923;-70
2022/01/20 04:58:22;;;;;;;;;;;20.40;48.30;;;;;;5083921;28;19927;-72
2022/01/20 05:00:47;;;;;;;;;;;20.40;48.30;;;;;;5086172;28;20029;-72
2022/01/20 05:03:13;;;;;;;;;;;20.40;48.80;;;;;;5085370;28;19912;-71
2022/01/20 05:05:38;;;;;;;;;;;20.40;48.30;;;;;;5084681;28;19919;-71
2022/01/20 05:08:04;;;;;;;;;;;20.40;48.30;;;;;;5085796;28;19916;-70
2022/01/20 05:10:32;;;;;;;;;;;20.40;48.30;;;;;;5084010;28;19912;-72
2022/01/20 05:15:24;;;;;;;;;;;20.40;48.30;;;;;;5084296;28;19919;-73
2022/01/20 05:17:49;;;;;;;;;;;20.40;48.30;;;;;;5086061;28;20387;-73
2022/01/20 05:20:15;;;;;;;;;;;20.40;48.40;;;;;;5081941;28;20400;-72
2022/01/20 05:22:47;;;;;;;;;;;20.40;48.40;;;;;;5083649;28;19923;-73
2022/01/20 05:25:12;;;;;;;;;;;20.40;48.40;;;;;;5075128;28;19994;-72
2022/01/20 05:27:38;;;;;;;;;;;20.40;48.40;;;;;;5085780;28;20365;-70
2022/01/20 05:30:04;;;;;;;;;;;20.40;48.40;;;;;;5081996;28;19951;-72
2022/01/20 05:32:29;;;;;;;;;;;20.40;48.40;;;;;;5086227;28;20368;-73
2022/01/20 05:34:55;;;;;;;;;;;20.40;48.50;;;;;;5085591;28;19915;-73
2022/01/20 05:37:20;;;;;;;;;;;20.40;48.50;;;;;;5085839;28;19920;-70
2022/01/20 05:39:46;;;;;;;;;;;20.40;48.50;;;;;;5083983;28;19923;-71
2022/01/20 05:42:11;;;;;;;;;;;20.40;48.50;;;;;;5081403;28;20291;-73
2022/01/20 05:44:37;;;;;;;;;;;20.40;48.50;;;;;;5082247;28;19962;-72
2022/01/20 05:47:11;;;;;;;;;;;20.40;48.50;;;;;;5083706;28;19927;-71
2022/01/20 05:49:36;;;;;;;;;;;20.40;48.60;;;;;;5083625;28;19912;-72
2022/01/20 05:52:02;;;;;;;;;;;20.40;48.60;;;;;;5086118;28;19916;-71
2022/01/20 05:54:28;;;;;;;;;;;20.40;48.60;;;;;;5081491;28;20302;-70
2022/01/20 05:56:54;;;;;;;;;;;20.30;48.60;;;;;;5082140;28;19928;-70
2022/01/20 05:59:19;;;;;;;;;;;20.40;48.60;;;;;;5082770;28;20353;-73
2022/01/20 06:01:52;;;;;;;;;;;20.30;48.60;;;;;;5082819;28;20218;-72
2022/01/20 06:04:17;;;;;;;;;;;20.30;48.60;;;;;;5085766;28;20403;-73
2022/01/20 06:06:44;;;;;;;;;;;20.30;48.60;;;;;;5082227;28;19930;-73
2022/01/20 06:09:10;;;;;;;;;;;20.30;48.60;;;;;;5076366;28;19920;-71
2022/01/20 06:11:36;;;;;;;;;;;20.30;48.70;;;;;;5082236;28;19921;-72
2022/01/20 06:14:03;;;;;;;;;;;20.30;48.70;;;;;;5076983;28;19948;-70
2022/01/20 06:16:28;;;;;;;;;;;20.30;48.70;;;;;;5074834;28;19920;-72
2022/01/20 06:18:54;;;;;;;;;;;20.30;48.70;;;;;;5078183;28;20326;-72
2022/01/20 06:21:20;;;;;;;;;;;20.30;48.70;;;;;;5078900;28;20421;-70
2022/01/20 06:23:45;;;;;;;;;;;20.30;48.80;;;;;;5080869;28;19961;-71
2022/01/20 06:26:14;;;;;;;;;;;20.30;48.90;;;;;;5079576;28;20032;-72
2022/01/20 06:28:42;;;;;;;;;;;20.30;49.00;;;;;;5081083;28;19920;-72
2022/01/20 06:31:09;;;;;;;;;;;20.30;49.10;;;;;;5079912;28;19920;-73
2022/01/20 06:33:34;;;;;;;;;;;20.30;49.10;;;;;;5080643;28;20359;-70
2022/01/20 06:36:00;;;;;;;;;;;20.30;49.10;;;;;;5077256;28;19919;-72
2022/01/20 06:38:26;;;;;;;;;;;20.30;49.20;;;;;;5080065;28;19928;-71
2022/01/20 06:40:52;;;;;;;;;;;20.30;49.20;;;;;;5081320;28;19916;-71
2022/01/20 06:43:18;;;;;;;;;;;20.30;49.30;;;;;;5078671;28;20582;-73
2022/01/20 06:45:43;;;;;;;;;;;20.30;49.30;;;;;;5075774;28;20061;-70
2022/01/20 06:48:09;;;;;;;;;;;20.30;49.30;;;;;;5080174;28;19966;-73
2022/01/20 06:50:35;;;;;;;;;;;20.30;49.30;;;;;;5082616;28;20282;-71
2022/01/20 06:53:00;;;;;;;;;;;20.30;49.30;;;;;;5079068;28;20029;-71
2022/01/20 06:55:26;;;;;;;;;;;20.30;49.30;;;;;;5084367;28;20002;-71
2022/01/20 06:57:51;;;;;;;;;;;20.30;49.30;;;;;;5088144;28;19919;-70
2022/01/20 07:00:18;;;;;;;;;;;20.30;49.30;;;;;;5083862;28;19927;-72
2022/01/20 07:02:44;;;;;;;;;;;20.30;49.80;;;;;;5087550;28;19952;-73
2022/01/20 07:05:10;;;;;;;;;;;20.30;49.30;;;;;;5083195;28;20021;-70
2022/01/20 07:07:36;;;;;;;;;;;20.30;49.50;;;;;;5087195;28;19928;-73
2022/01/20 07:10:02;;;;;;;;;;;20.40;50.20;;;;;;5086943;28;20287;-71
2022/01/20 07:12:28;;;;;;;;;;;20.60;50.30;;;;;;5084567;28;19916;-72
2022/01/20 07:14:53;;;;;;;;;;;20.80;50.60;;;;;;5083310;28;19918;-70
2022/01/20 07:17:19;;;;;;;;;;;21.20;50.70;;;;;;5084366;28;20243;-74
2022/01/20 07:19:44;;;;;;;;;;;21.40;50.50;;;;;;5089855;28;19927;-72
2022/01/20 07:22:10;;;;;;;;;;;21.70;50.20;;;;;;5088016;28;19931;-70
2022/01/20 07:24:35;;;;;;;;;;;21.90;49.70;;;;;;5084670;28;19922;-72
2022/01/20 07:27:01;;;;;;;;;;;22.20;49.60;;;;;;5083141;28;19924;-71
2022/01/20 07:29:27;;;;;;;;;;;22.30;49.40;;;;;;5088698;28;20276;-67
2022/01/20 07:31:53;;;;;;;;;;;22.30;49.30;;;;;;5089653;28;19970;-70
2022/01/20 07:34:19;;;;;;;;;;;22.20;49.50;;;;;;5089820;28;19940;-73
2022/01/20 07:36:44;;;;;;;;;;;22.10;49.70;;;;;;5088893;28;20388;-74
2022/01/20 07:39:10;;;;;;;;;;;22.10;50.00;;;;;;5087023;28;19931;-74
2022/01/20 07:41:35;;;;;;;;;;;22.10;50.20;;;;;;5087788;28;19958;-70
2022/01/20 07:44:01;;;;;;;;;;;22.00;50.90;;;;;;5087443;28;20427;-69
2022/01/20 07:46:26;;;;;;;;;;;22.10;51.00;;;;;;5083862;28;19912;-74
2022/01/20 07:48:52;;;;;;;;;;;22.10;51.00;;;;;;5087880;28;19912;-72
2022/01/20 07:51:17;;;;;;;;;;;22.10;51.80;;;;;;5085645;28;19961;-70
2022/01/20 07:53:43;;;;;;;;;;;22.10;52.40;;;;;;5088134;28;19962;-70
2022/01/20 07:56:09;;;;;;;;;;;22.10;52.80;;;;;;5084283;28;19920;-73
2022/01/20 07:58:35;;;;;;;;;;;22.10;53.20;;;;;;5085206;28;19962;-73
2022/01/20 08:01:01;;;;;;;;;;;22.20;52.50;;;;;;5090627;28;19919;-69
2022/01/20 08:03:26;;;;;;;;;;;22.20;52.40;;;;;;5087059;28;19916;-68
2022/01/20 08:05:52;;;;;;;;;;;22.20;52.20;;;;;;5083643;28;19912;-69
2022/01/20 08:08:18;;;;;;;;;;;22.20;52.10;;;;;;5087610;28;19916;-73
2022/01/20 08:10:43;;;;;;;;;;;22.20;52.10;;;;;;5083118;28;19920;-74
2022/01/20 08:13:09;;;;;;;;;;;22.20;52.10;;;;;;5083213;28;19938;-71
2022/01/20 08:15:34;;;;;;;;;;;22.20;52.00;;;;;;5079620;28;19981;-72
2022/01/20 08:18:00;;;;;;;;;;;22.20;52.00;;;;;;5082075;28;19919;-71
2022/01/20 08:20:25;;;;;;;;;;;22.30;52.40;;;;;;5087447;28;20379;-70
2022/01/20 08:22:51;;;;;;;;;;;22.30;52.10;;;;;;5083395;28;19916;-71
2022/01/20 08:25:18;;;;;;;;;;;22.30;51.80;;;;;;5068199;28;20409;-70
2022/01/20 08:27:45;;;;;;;;;;;22.40;51.70;;;;;;5085025;28;20322;-73
2022/01/20 08:30:12;;;;;;;;;;;22.40;52.10;;;;;;5088568;28;19935;-72
2022/01/20 08:32:37;;;;;;;;;;;22.40;52.10;;;;;;5084486;28;20019;-74
2022/01/20 08:35:06;;;;;;;;;;;22.40;51.80;;;;;;5077236;28;20331;-73
2022/01/20 08:37:34;;;;;;;;;;;22.50;51.90;;;;;;5084363;28;19923;-72
2022/01/20 08:40:04;;;;;;;;;;;22.50;52.00;;;;;;5081798;28;19941;-71
2022/01/20 08:42:30;;;;;;;;;;;22.50;52.00;;;;;;5084560;28;20219;-71
2022/01/20 08:44:55;;;;;;;;;;;22.50;52.10;;;;;;5084887;28;19927;-72
2022/01/20 08:47:21;;;;;;;;;;;22.60;51.90;;;;;;5086012;28;19927;-72
2022/01/20 08:49:47;;;;;;;;;;;22.60;52.30;;;;;;5089744;28;19929;-70
2022/01/20 08:52:14;;;;;;;;;;;22.60;52.50;;;;;;5084341;28;19992;-72
2022/01/20 08:54:40;;;;;;;;;;;22.60;52.50;;;;;;5081395;28;20374;-74
2022/01/20 08:57:05;;;;;;;;;;;22.60;52.20;;;;;;5083802;28;19956;-72
2022/01/20 08:59:31;;;;;;;;;;;22.70;52.10;;;;;;5086894;28;20015;-72
2022/01/20 09:01:56;;;;;;;;;;;22.70;52.50;;;;;;5085278;28;20015;-70
2022/01/20 09:04:22;;;;;;;;;;;22.70;52.90;;;;;;5079661;28;19920;-73
2022/01/20 09:06:47;;;;;;;;;;;22.70;52.70;;;;;;5082142;28;19977;-69
2022/01/20 09:09:16;;;;;;;;;;;22.70;52.00;;;;;;5085382;28;19923;-73
2022/01/20 09:11:51;;;;;;;;;;;22.80;52.00;;;;;;5085740;28;20338;-74
2022/01/20 09:17:01;;;;;;;;;;;22.80;52.30;;;;;;5079079;28;20524;-71
2022/01/20 09:19:27;;;;;;;;;;;22.80;52.20;;;;;;5087603;28;20027;-73
2022/01/20 09:21:52;;;;;;;;;;;22.90;52.20;;;;;;5087546;28;20367;-74
2022/01/20 09:24:18;;;;;;;;;;;22.90;51.80;;;;;;5080731;28;19912;-74
2022/01/20 09:26:43;;;;;;;;;;;22.90;51.80;;;;;;5085151;28;19959;-74
2022/01/20 09:29:09;;;;;;;;;;;22.90;52.00;;;;;;5087236;28;19923;-71
2022/01/20 09:31:38;;;;;;;;;;;22.90;51.90;;;;;;5086367;28;19965;-72
2022/01/20 09:34:04;;;;;;;;;;;22.90;51.80;;;;;;5085351;28;20260;-74
2022/01/20 09:36:29;;;;;;;;;;;22.90;51.40;;;;;;5079699;28;19923;-72
2022/01/20 09:38:55;;;;;;;;;;;22.90;51.80;;;;;;5083421;28;19943;-70
2022/01/20 09:41:20;;;;;;;;;;;23.00;51.80;;;;;;5087024;28;19915;-69
2022/01/20 09:43:48;;;;;;;;;;;23.00;51.70;;;;;;5085356;28;20225;-71
2022/01/20 09:46:14;;;;;;;;;;;23.00;51.50;;;;;;5087864;28;19916;-72
2022/01/20 09:48:39;;;;;;;;;;;23.00;48.70;;;;;;5086024;28;19950;-73
2022/01/20 09:51:05;;;;;;;;;;;23.00;47.60;;;;;;5082102;28;19956;-73
2022/01/20 09:53:31;;;;;;;;;;;22.90;47.00;;;;;;5087418;28;19916;-74
2022/01/20 09:55:57;;;;;;;;;;;22.90;46.80;;;;;;5087431;28;19915;-75
2022/01/20 09:58:23;;;;;;;;;;;22.90;47.00;;;;;;5083149;28;20327;-75
2022/01/20 10:00:51;;;;;;;;;;;22.90;46.60;;;;;;5088614;28;20466;-72
2022/01/20 10:03:17;;;;;;;;;;;22.80;46.70;;;;;;5088766;28;19931;-75
2022/01/20 10:05:47;;;;;;;;;;;22.80;46.40;;;;;;5089614;28;20003;-73
2022/01/20 10:08:24;;;;;;;;;;;22.80;46.40;;;;;;5087765;28;19916;-73
2022/01/20 10:10:59;;;;;;;;;;;22.70;46.30;;;;;;5082873;28;19961;-73
2022/01/20 10:13:29;;;;;;;;;;;22.80;46.30;;;;;;5103112;28;19916;-71
2022/01/20 10:16:00;;;;;;;;;;;22.80;46.30;;;;;;5083844;28;19962;-73
2022/01/20 10:18:26;;;;;;;;;;;22.70;46.20;;;;;;5086940;28;19912;-73
2022/01/20 10:21:03;;;;;;;;;;;22.80;47.10;;;;;;5095695;28;19988;-74
2022/01/20 10:23:30;;;;;;;;;;;22.70;46.80;;;;;;5085914;28;19954;-74
2022/01/20 10:26:16;;;;;;;;;;;22.70;46.90;;;;;;5089826;28;20011;-70
2022/01/20 10:28:58;;;;;;;;;;;22.70;47.00;;;;;;5086809;28;19949;-71
2022/01/20 10:31:51;;;;;;;;;;;22.70;47.10;;;;;;5087023;28;20019;-73
2022/01/20 10:34:18;;;;;;;;;;;22.70;47.30;;;;;;5082230;28;20441;-74
2022/01/20 10:36:50;;;;;;;;;;;22.70;47.50;;;;;;5082789;28;20345;-73
2022/01/20 10:39:16;;;;;;;;;;;22.70;47.40;;;;;;5089033;28;19927;-70
2022/01/20 10:41:41;;;;;;;;;;;22.70;47.70;;;;;;5092444;28;19915;-72
2022/01/20 10:44:13;;;;;;;;;;;22.70;47.40;;;;;;5086656;28;19915;-70
2022/01/20 10:46:42;;;;;;;;;;;22.70;47.40;;;;;;5086810;28;19912;-70
2022/01/20 10:49:08;;;;;;;;;;;22.80;47.50;;;;;;5088530;28;19912;-72
2022/01/20 10:51:33;;;;;;;;;;;22.80;47.50;;;;;;5090338;28;20542;-72
2022/01/20 10:54:04;;;;;;;;;;;22.80;47.50;;;;;;5089808;28;19919;-71
2022/01/20 10:56:29;;;;;;;;;;;22.80;47.50;;;;;;5083148;28;20263;-72
2022/01/20 10:59:05;;;;;;;;;;;22.70;47.40;;;;;;5088207;28;19984;-70
2022/01/20 11:01:30;;;;;;;;;;;22.80;47.50;;;;;;5089716;28;20034;-73
2022/01/20 11:03:58;;;;;;;;;;;22.80;47.40;;;;;;5087015;28;20414;-72
2022/01/20 11:06:23;;;;;;;;;;;22.70;47.40;;;;;;5083184;28;19912;-72
2022/01/20 11:08:50;;;;;;;;;;;22.80;47.40;;;;;;5084974;28;19931;-72
2022/01/20 11:11:16;;;;;;;;;;;22.80;47.40;;;;;;5085599;28;19913;-72
2022/01/20 11:13:41;;;;;;;;;;;22.80;47.40;;;;;;5088695;28;19924;-72
2022/01/20 11:16:07;;;;;;;;;;;22.80;47.40;;;;;;5087009;28;20627;-69
2022/01/20 11:18:33;;;;;;;;;;;22.80;47.50;;;;;;5086884;28;19951;-72
2022/01/20 11:21:00;;;;;;;;;;;22.80;47.40;;;;;;5087324;28;20035;-70
2022/01/20 11:23:43;;;;;;;;;;;22.90;47.40;;;;;;5088743;28;19920;-70
2022/01/20 11:26:09;;;;;;;;;;;22.90;47.40;;;;;;5084869;28;19920;-74
2022/01/20 11:28:34;;;;;;;;;;;22.90;47.60;;;;;;5084411;28;20449;-74
2022/01/20 11:31:04;;;;;;;;;;;22.80;46.90;;;;;;5085844;28;19916;-77
2022/01/20 11:33:36;;;;;;;;;;;22.90;46.60;;;;;;5089335;28;20581;-77
2022/01/20 11:36:02;;;;;;;;;;;22.90;46.50;;;;;;5078460;28;19958;-74
2022/01/20 11:38:47;;;;;;;;;;;22.90;46.50;;;;;;5082854;28;20564;-75
2022/01/20 11:41:14;;;;;;;;;;;22.90;46.40;;;;;;5086260;28;19916;-79
2022/01/20 11:43:47;;;;;;;;;;;22.80;46.40;;;;;;5084715;28;19912;-75
2022/01/20 11:46:22;;;;;;;;;;;22.80;46.40;;;;;;5088853;28;19916;-78
2022/01/20 11:48:56;;;;;;;;;;;22.80;46.40;;;;;;5085408;28;20300;-78
2022/01/20 11:51:23;;;;;;;;;;;22.80;46.40;;;;;;5084973;28;19922;-74
2022/01/20 11:53:59;;;;;;;;;;;22.80;46.50;;;;;;5082897;28;19919;-72
2022/01/20 11:56:34;;;;;;;;;;;22.80;46.70;;;;;;5081357;28;19912;-75
2022/01/20 11:59:00;;;;;;;;;;;22.90;47.30;;;;;;5078542;28;20246;-73
2022/01/20 12:01:27;;;;;;;;;;;22.90;47.20;;;;;;5082085;28;19960;-69
2022/01/20 12:03:53;;;;;;;;;;;22.90;47.30;;;;;;5082036;28;19950;-73
2022/01/20 12:06:24;;;;;;;;;;;22.90;47.80;;;;;;5085439;28;19958;-71
2022/01/20 12:08:57;;;;;;;;;;;22.90;48.40;;;;;;5084804;28;19916;-71
2022/01/20 12:11:33;;;;;;;;;;;22.90;47.50;;;;;;5084881;28;20498;-70
2022/01/20 12:13:59;;;;;;;;;;;22.90;47.50;;;;;;5097942;28;19914;-72
2022/01/20 12:16:24;;;;;;;;;;;22.90;47.40;;;;;;5084119;28;19912;-73
2022/01/20 12:18:50;;;;;;;;;;;22.90;47.40;;;;;;5082933;28;20406;-73
2022/01/20 12:21:16;;;;;;;;;;;22.90;47.40;;;;;;5088324;28;20287;-71
2022/01/20 12:23:42;;;;;;;;;;;22.90;47.40;;;;;;5082481;28;19916;-70
2022/01/20 12:26:08;;;;;;;;;;;22.90;47.40;;;;;;5083026;28;19923;-73
2022/01/20 12:28:33;;;;;;;;;;;22.90;47.40;;;;;;5084580;28;19924;-68
2022/01/20 12:31:00;;;;;;;;;;;22.90;47.40;;;;;;5087538;28;19913;-71
2022/01/20 12:33:27;;;;;;;;;;;22.90;47.40;;;;;;5098221;28;19919;-69
2022/01/20 12:35:54;;;;;;;;;;;22.90;47.40;;;;;;5078828;28;19959;-73
2022/01/20 12:38:29;;;;;;;;;;;22.90;47.30;;;;;;5083185;28;19934;-72
2022/01/20 12:41:00;;;;;;;;;;;22.90;47.30;;;;;;5084953;28;19984;-74
2022/01/20 12:43:34;;;;;;;;;;;22.90;47.30;;;;;;5084322;28;19916;-72
2022/01/20 12:46:00;;;;;;;;;;;22.90;47.30;;;;;;5082091;28;20003;-71
2022/01/20 12:48:25;;;;;;;;;;;22.90;47.40;;;;;;5082555;28;19923;-70
2022/01/20 12:50:52;;;;;;;;;;;22.90;47.30;;;;;;5091679;28;19923;-75
2022/01/20 12:53:18;;;;;;;;;;;22.90;47.30;;;;;;5077836;28;19916;-74
2022/01/20 12:55:52;;;;;;;;;;;23.00;47.70;;;;;;5076580;28;19916;-72
2022/01/20 12:58:18;;;;;;;;;;;23.00;47.30;;;;;;5079246;28;20044;-71
2022/01/20 13:00:43;;;;;;;;;;;23.10;47.20;;;;;;5078470;28;19941;-70
2022/01/20 13:03:09;;;;;;;;;;;23.00;47.10;;;;;;5083108;28;19997;-72
2022/01/20 13:05:40;;;;;;;;;;;23.00;47.10;;;;;;5083043;28;20758;-70
2022/01/20 13:08:06;;;;;;;;;;;23.00;47.20;;;;;;5078904;28;20065;-72
2022/01/20 13:10:34;;;;;;;;;;;23.00;47.20;;;;;;5079873;28;20023;-71
2022/01/20 13:13:05;;;;;;;;;;;23.00;47.20;;;;;;5078820;28;20550;-71
2022/01/20 13:15:31;;;;;;;;;;;23.00;47.20;;;;;;5082326;28;20332;-70
2022/01/20 13:18:04;;;;;;;;;;;23.10;47.20;;;;;;5080358;28;19921;-72
2022/01/20 13:20:31;;;;;;;;;;;23.00;47.20;;;;;;5079209;28;19930;-72
2022/01/20 13:22:58;;;;;;;;;;;23.10;47.20;;;;;;5082447;28;19912;-71
2022/01/20 13:25:28;;;;;;;;;;;23.10;47.20;;;;;;5081751;28;19916;-71
2022/01/20 13:27:55;;;;;;;;;;;23.10;47.30;;;;;;5080750;28;20290;-71
2022/01/20 13:30:24;;;;;;;;;;;23.10;47.20;;;;;;5076152;28;20013;-71
2022/01/20 13:32:50;;;;;;;;;;;23.10;47.20;;;;;;5080920;28;19920;-73
2022/01/20 13:35:15;;;;;;;;;;;23.10;47.20;;;;;;5077500;28;19923;-75
2022/01/20 13:37:41;;;;;;;;;;;23.10;46.70;;;;;;5076580;28;19978;-74
2022/01/20 13:40:08;;;;;;;;;;;23.10;46.40;;;;;;5078428;28;20456;-72
2022/01/20 13:42:45;;;;;;;;;;;23.10;46.30;;;;;;5081516;28;19972;-72
2022/01/20 13:45:14;;;;;;;;;;;23.10;46.40;;;;;;5079784;28;19923;-73
2022/01/20 13:47:56;;;;;;;;;;;23.10;46.50;;;;;;5079483;28;19920;-73
2022/01/20 13:50:21;;;;;;;;;;;23.10;46.60;;;;;;5096244;28;20374;-71
2022/01/20 13:52:47;;;;;;;;;;;23.10;46.70;;;;;;5081056;28;19916;-69
2022/01/20 13:55:24;;;;;;;;;;;23.10;46.90;;;;;;5079465;28;19916;-69
2022/01/20 13:57:50;;;;;;;;;;;23.10;46.90;;;;;;5079136;28;19920;-74
2022/01/20 14:00:18;;;;;;;;;;;23.10;46.90;;;;;;5078888;28;19923;-70
2022/01/20 14:02:47;;;;;;;;;;;23.10;46.90;;;;;;5078935;28;19920;-72
2022/01/20 14:05:14;;;;;;;;;;;23.10;46.90;;;;;;5079945;28;19923;-74
2022/01/20 14:07:39;;;;;;;;;;;23.10;46.90;;;;;;5076763;28;20655;-69
2022/01/20 14:10:05;;;;;;;;;;;23.10;47.00;;;;;;5080824;28;19923;-71
2022/01/20 14:12:30;;;;;;;;;;;23.10;47.00;;;;;;5075919;28;20389;-70
2022/01/20 14:14:56;;;;;;;;;;;23.10;47.10;;;;;;5077446;28;19923;-69
2022/01/20 14:17:22;;;;;;;;;;;23.10;47.00;;;;;;5082517;28;19916;-73
2022/01/20 14:19:54;;;;;;;;;;;23.20;47.00;;;;;;5083256;28;19916;-72
2022/01/20 14:22:20;;;;;;;;;;;23.10;47.00;;;;;;5075727;28;19928;-74
2022/01/20 14:24:46;;;;;;;;;;;23.10;46.90;;;;;;5077047;28;19920;-74
2022/01/20 14:27:15;;;;;;;;;;;23.20;47.00;;;;;;5091883;28;19920;-74
2022/01/20 14:29:42;;;;;;;;;;;23.20;47.00;;;;;;5078225;28;20003;-72
2022/01/20 14:32:08;;;;;;;;;;;23.20;47.00;;;;;;5077449;28;19936;-71
2022/01/20 14:34:34;;;;;;;;;;;23.20;47.00;;;;;;5073732;28;20370;-72
2022/01/20 14:36:59;;;;;;;;;;;23.20;47.00;;;;;;5073444;28;19923;-72
2022/01/20 14:39:25;;;;;;;;;;;23.20;46.90;;;;;;5091191;28;20078;-68
2022/01/20 14:41:50;;;;;;;;;;;23.20;47.00;;;;;;5078869;28;20420;-71
2022/01/20 14:44:16;;;;;;;;;;;23.20;46.90;;;;;;5075202;28;19928;-70
2022/01/20 14:46:42;;;;;;;;;;;23.20;47.00;;;;;;5077450;28;19941;-69
2022/01/20 14:49:08;;;;;;;;;;;23.20;47.00;;;;;;5083202;28;19916;-72
2022/01/20 14:51:33;;;;;;;;;;;23.20;46.90;;;;;;5075040;28;19928;-69
2022/01/20 14:53:59;;;;;;;;;;;23.20;46.90;;;;;;5073334;28;19920;-71
2022/01/20 14:56:24;;;;;;;;;;;23.20;46.90;;;;;;5074357;28;19919;-74
2022/01/20 14:58:50;;;;;;;;;;;23.20;46.90;;;;;;5082287;28;19920;-72
2022/01/20 15:01:16;;;;;;;;;;;23.20;47.00;;;;;;5083965;28;19915;-68
2022/01/20 15:03:42;;;;;;;;;;;23.20;47.00;;;;;;5076991;28;19916;-71
2022/01/20 15:06:07;;;;;;;;;;;23.20;46.90;;;;;;5076103;28;19928;-71
2022/01/20 15:08:33;;;;;;;;;;;23.20;46.90;;;;;;5073033;28;19923;-72
2022/01/20 15:10:59;;;;;;;;;;;23.20;46.80;;;;;;5079440;28;19916;-74
2022/01/20 15:13:25;;;;;;;;;;;23.20;46.60;;;;;;5081821;28;19961;-74
2022/01/20 15:15:50;;;;;;;;;;;23.30;46.20;;;;;;5082232;28;19936;-72
2022/01/20 15:18:16;;;;;;;;;;;23.30;46.20;;;;;;5085584;28;19995;-69
2022/01/20 15:20:41;;;;;;;;;;;23.30;46.30;;;;;;5086869;28;19930;-71